Time;durP1;ratioP1;P1;durP2;ratioP2;P2;SDS_P1;SDS_P2;PMS_P1;PMS_P2;Temp;Humidity;BMP_temperature;BMP_pressure;BME280_temperature;BME280_humidity;BME280_pressure;Samples;Min_cycle;Max_cycle;Signal;HPM_P1;HPM_P2
2023/01/30 00:01:56;;;;;;;25.63;15.60;;;-1.60;96.50;;;;;;4990066;28;20229;-88
2023/01/30 00:04:24;;;;;;;36.43;22.40;;;-1.50;97.00;;;;;;5006916;28;20208;-89
2023/01/30 00:06:51;;;;;;;34.73;20.70;;;-1.60;97.10;;;;;;5009798;28;20211;-89
2023/01/30 00:09:18;;;;;;;37.93;23.23;;;-1.20;98.60;;;;;;5019280;28;20214;-86
2023/01/30 00:11:47;;;;;;;26.90;16.10;;;-1.10;97.70;;;;;;5017025;28;20661;-86
2023/01/30 00:14:14;;;;;;;43.00;26.27;;;-1.00;96.60;;;;;;5012925;28;20202;-86
2023/01/30 00:16:43;;;;;;;29.67;17.57;;;-1.20;96.40;;;;;;5023667;28;20209;-86
2023/01/30 00:22:20;;;;;;;32.97;19.30;;;-1.10;97.40;;;;;;4959009;28;20250;-86
2023/01/30 00:24:50;;;;;;;27.50;15.70;;;-1.30;96.10;;;;;;4952682;28;20224;-87
2023/01/30 00:27:17;;;;;;;25.50;15.70;;;-1.50;96.00;;;;;;4953309;28;20234;-86
2023/01/30 00:29:44;;;;;;;41.47;24.87;;;-1.60;96.30;;;;;;4956184;28;20220;-85
2023/01/30 00:32:11;;;;;;;27.10;15.87;;;-1.60;97.30;;;;;;4953122;28;20804;-87
2023/01/30 00:34:40;;;;;;;31.80;18.73;;;-1.50;97.50;;;;;;4956534;28;20213;-86
2023/01/30 00:37:07;;;;;;;37.30;23.80;;;-1.40;97.60;;;;;;4952883;28;20205;-87
2023/01/30 00:39:36;;;;;;;36.23;21.43;;;-1.10;98.00;;;;;;4952440;28;20218;-88
2023/01/30 00:47:32;;;;;;;43.77;24.97;;;-0.90;96.90;;;;;;4954741;28;20212;-89
2023/01/30 00:49:58;;;;;;;35.60;21.90;;;-0.80;97.10;;;;;;4955214;28;20228;-87
2023/01/30 00:52:25;;;;;;;32.57;19.40;;;-1.00;96.40;;;;;;4952898;28;20261;-90
2023/01/30 00:54:56;;;;;;;30.60;19.13;;;-0.80;96.90;;;;;;4950257;29;20218;-87
2023/01/30 00:57:23;;;;;;;32.73;19.30;;;-0.60;96.50;;;;;;4952272;28;20287;-87
2023/01/30 00:59:55;;;;;;;33.37;19.93;;;-0.60;95.80;;;;;;4951872;28;20220;-86
2023/01/30 01:02:22;;;;;;;26.97;16.40;;;-0.60;96.10;;;;;;4952740;28;20239;-85
2023/01/30 01:04:49;;;;;;;29.70;17.97;;;-0.70;95.30;;;;;;4936720;29;20647;-87
2023/01/30 01:07:16;;;;;;;27.43;17.53;;;-0.70;95.80;;;;;;5016882;28;20209;-86
2023/01/30 01:09:43;;;;;;;27.57;16.37;;;-0.80;95.40;;;;;;5006354;28;20614;-87
2023/01/30 01:12:11;;;;;;;28.20;16.93;;;-1.00;94.90;;;;;;4995068;28;20199;-86
2023/01/30 01:14:38;;;;;;;29.00;17.17;;;-1.00;95.30;;;;;;5012184;28;20217;-90
2023/01/30 01:17:08;;;;;;;31.10;18.23;;;-1.10;95.70;;;;;;5002167;28;20212;-88
2023/01/30 01:19:35;;;;;;;30.50;18.33;;;-1.20;95.70;;;;;;5000368;28;20207;-87
2023/01/30 01:22:02;;;;;;;25.00;14.47;;;-1.20;96.20;;;;;;5005356;28;20230;-89
2023/01/30 01:24:30;;;;;;;24.50;15.10;;;-1.20;95.60;;;;;;5006342;28;20231;-86
2023/01/30 01:26:58;;;;;;;25.33;15.57;;;-1.60;94.90;;;;;;5006217;28;20232;-89
2023/01/30 01:29:26;;;;;;;27.90;15.90;;;-1.80;95.50;;;;;;5023479;28;20271;-90
2023/01/30 01:31:53;;;;;;;26.37;16.03;;;-1.80;96.50;;;;;;5018149;28;20214;-91
2023/01/30 01:34:20;;;;;;;27.40;15.93;;;-1.80;96.40;;;;;;5018943;28;20213;-88
2023/01/30 01:36:49;;;;;;;25.33;15.53;;;-1.80;96.80;;;;;;5007572;28;20212;-90
2023/01/30 01:39:16;;;;;;;29.47;16.90;;;-1.70;96.70;;;;;;5009662;28;20253;-87
2023/01/30 01:41:41;;;;;;;27.20;16.03;;;-1.70;97.20;;;;;;5010818;28;20223;-88
2023/01/30 01:44:10;;;;;;;29.33;17.23;;;-1.50;96.50;;;;;;5019417;28;20214;-88
2023/01/30 01:46:42;;;;;;;26.37;15.37;;;-1.40;96.40;;;;;;5009678;28;20221;-88
2023/01/30 01:49:15;;;;;;;31.53;16.30;;;-1.50;95.50;;;;;;5013485;28;20200;-89
2023/01/30 01:51:52;;;;;;;27.20;15.63;;;-1.30;96.40;;;;;;5009348;28;20226;-87
2023/01/30 01:54:23;;;;;;;27.77;16.53;;;-1.50;95.20;;;;;;5002616;28;20593;-87
2023/01/30 01:56:50;;;;;;;24.77;14.43;;;-1.40;95.70;;;;;;5010663;28;20223;-89
2023/01/30 01:59:22;;;;;;;28.23;16.80;;;-1.50;94.70;;;;;;5009861;28;20218;-87
2023/01/30 02:01:53;;;;;;;24.60;15.17;;;-1.40;95.80;;;;;;5014004;28;20234;-87
2023/01/30 02:05:00;;;;;;;27.10;16.83;;;-1.30;96.00;;;;;;5005207;28;20201;-88
2023/01/30 02:07:11;;;;;;;27.47;15.17;;;-1.10;95.50;;;;;;5010578;28;20289;-88
2023/01/30 02:09:38;;;;;;;27.67;14.90;;;-1.40;93.70;;;;;;5006433;28;20206;-88
2023/01/30 02:12:06;;;;;;;28.97;16.90;;;-1.70;94.80;;;;;;5009018;28;20212;-88
2023/01/30 02:14:35;;;;;;;25.67;15.33;;;-1.70;96.00;;;;;;5009779;28;20265;-87
2023/01/30 02:17:03;;;;;;;26.37;16.13;;;-1.90;95.30;;;;;;5012741;28;20684;-89
2023/01/30 02:19:39;;;;;;;26.53;15.20;;;-2.00;95.70;;;;;;5005930;28;20291;-88
2023/01/30 02:22:36;;;;;;;27.87;16.07;;;-2.30;95.90;;;;;;5007640;28;20233;-89
2023/01/30 02:25:30;;;;;;;26.80;15.70;;;-2.60;96.10;;;;;;5004875;28;20229;-87
2023/01/30 02:28:29;;;;;;;26.63;15.53;;;-2.20;97.50;;;;;;5011492;28;20645;-88
2023/01/30 02:31:22;;;;;;;24.67;15.23;;;-1.90;96.70;;;;;;5007736;28;20208;-87
2023/01/30 02:33:59;;;;;;;27.13;15.33;;;-2.00;95.80;;;;;;5005930;28;20202;-86
2023/01/30 02:36:32;;;;;;;27.27;15.80;;;-2.30;95.50;;;;;;5011296;28;20731;-89
2023/01/30 02:39:07;;;;;;;24.80;15.77;;;-2.30;96.80;;;;;;5006308;28;20215;-87
2023/01/30 02:41:42;;;;;;;24.67;15.83;;;-2.00;97.20;;;;;;5010823;28;20226;-85
2023/01/30 02:44:16;;;;;;;24.63;14.43;;;-2.00;96.10;;;;;;5009298;28;20209;-86
2023/01/30 02:46:53;;;;;;;28.17;15.83;;;-2.20;96.10;;;;;;5002537;28;20218;-86
2023/01/30 02:49:28;;;;;;;28.10;16.23;;;-2.40;96.00;;;;;;4997673;28;20215;-88
2023/01/30 02:51:56;;;;;;;31.80;16.67;;;-2.60;96.20;;;;;;5005166;28;20215;-88
2023/01/30 02:54:23;;;;;;;27.60;16.37;;;-2.20;97.90;;;;;;5004699;28;20207;-88
2023/01/30 02:56:52;;;;;;;27.03;15.97;;;-1.80;97.60;;;;;;5009674;28;20211;-86
2023/01/30 02:59:25;;;;;;;27.30;16.53;;;-1.40;96.30;;;;;;5000774;28;20204;-88
2023/01/30 03:05:34;;;;;;;25.77;15.87;;;-1.20;94.90;;;;;;5141679;27;20620;-86
2023/01/30 03:08:13;;;;;;;29.07;15.53;;;-1.60;95.00;;;;;;5128696;27;20669;-87
2023/01/30 03:10:49;;;;;;;27.43;16.50;;;-1.80;95.40;;;;;;5128507;27;20653;-87
2023/01/30 03:13:24;;;;;;;29.17;17.37;;;-2.00;95.70;;;;;;5120364;27;20675;-86
2023/01/30 03:15:55;;;;;;;29.60;16.73;;;-1.70;97.20;;;;;;5119878;27;20211;-87
2023/01/30 03:18:22;;;;;;;30.37;16.03;;;-1.20;95.70;;;;;;5119961;27;20690;-87
2023/01/30 03:20:52;;;;;;;28.03;16.30;;;-1.30;94.80;;;;;;5121665;27;20218;-90
2023/01/30 03:23:19;;;;;;;29.50;16.13;;;-1.10;95.40;;;;;;5123659;27;20223;-86
2023/01/30 03:25:47;;;;;;;27.47;16.17;;;-1.00;94.60;;;;;;5122389;27;20872;-85
2023/01/30 03:28:17;;;;;;;25.77;16.00;;;-1.10;94.60;;;;;;5120157;27;20221;-90
2023/01/30 03:30:43;;;;;;;30.27;17.37;;;-1.20;94.90;;;;;;5117389;27;20204;-90
2023/01/30 03:33:10;;;;;;;27.13;16.33;;;-1.20;95.00;;;;;;5118945;27;20694;-87
2023/01/30 03:35:37;;;;;;;29.93;17.30;;;-1.30;94.80;;;;;;5125400;27;20229;-88
2023/01/30 03:38:06;;;;;;;27.13;16.53;;;-1.30;94.90;;;;;;5121910;27;20207;-89
2023/01/30 03:40:33;;;;;;;28.60;16.70;;;-1.50;94.70;;;;;;5129650;27;20217;-88
2023/01/30 03:42:59;;;;;;;27.50;16.40;;;-1.50;95.80;;;;;;5128081;27;20659;-87
2023/01/30 03:45:26;;;;;;;29.73;16.13;;;-1.40;95.20;;;;;;5125557;27;20207;-87
2023/01/30 03:47:53;;;;;;;29.77;17.00;;;-1.40;94.60;;;;;;5116427;27;20203;-87
2023/01/30 03:50:20;;;;;;;26.57;15.73;;;-1.50;96.00;;;;;;5124777;27;20211;-88
2023/01/30 03:52:47;;;;;;;27.93;16.10;;;-1.40;95.00;;;;;;5121478;27;20199;-88
2023/01/30 03:55:15;;;;;;;28.30;16.23;;;-1.40;94.60;;;;;;5120062;27;20204;-87
2023/01/30 03:57:43;;;;;;;26.37;15.60;;;-1.40;94.70;;;;;;5119023;27;20587;-89
2023/01/30 04:00:11;;;;;;;25.50;15.87;;;-1.40;94.40;;;;;;5117440;27;20290;-88
2023/01/30 04:02:38;;;;;;;25.37;15.83;;;-1.40;94.00;;;;;;5127970;27;20203;-88
2023/01/30 04:05:06;;;;;;;27.87;16.13;;;-1.50;94.30;;;;;;5123171;27;20698;-87
2023/01/30 04:07:32;;;;;;;28.20;16.97;;;-1.40;95.10;;;;;;5128745;27;20654;-87
2023/01/30 04:09:59;;;;;;;26.27;16.37;;;-1.50;94.60;;;;;;5125420;27;20211;-87
2023/01/30 04:12:27;;;;;;;26.50;16.33;;;-1.60;95.20;;;;;;5117800;27;20199;-87
2023/01/30 04:14:54;;;;;;;27.90;16.37;;;-1.70;95.30;;;;;;5119689;27;20211;-87
2023/01/30 04:17:21;;;;;;;25.20;16.03;;;-1.50;95.00;;;;;;5103009;27;20234;-87
2023/01/30 04:19:48;;;;;;;26.50;15.83;;;-1.40;94.90;;;;;;5104707;27;20211;-87
2023/01/30 04:22:15;;;;;;;27.87;16.07;;;-1.40;94.60;;;;;;5110330;27;20211;-87
2023/01/30 04:24:45;;;;;;;28.63;16.30;;;-1.40;95.10;;;;;;5121269;27;20236;-86
2023/01/30 04:29:54;;;;;;;26.70;15.37;;;-1.00;94.60;;;;;;5115155;27;20212;-87
2023/01/30 04:32:21;;;;;;;27.47;16.73;;;-0.90;93.80;;;;;;5106998;28;20513;-86
2023/01/30 04:34:48;;;;;;;28.10;16.73;;;-1.10;93.80;;;;;;5105136;28;20258;-87
2023/01/30 04:37:15;;;;;;;26.47;15.87;;;-1.30;94.10;;;;;;5102561;27;20205;-86
2023/01/30 04:39:42;;;;;;;28.03;16.63;;;-1.30;94.80;;;;;;5107728;28;20210;-86
2023/01/30 04:42:11;;;;;;;26.93;16.00;;;-1.30;94.90;;;;;;5109621;27;20200;-87
2023/01/30 04:44:38;;;;;;;28.47;16.60;;;-1.20;95.00;;;;;;5107396;28;21034;-86
2023/01/30 04:47:07;;;;;;;28.27;16.83;;;-1.00;94.60;;;;;;5101098;28;20654;-87
2023/01/30 04:49:33;;;;;;;25.43;15.57;;;-0.90;94.10;;;;;;5107754;27;20200;-88
2023/01/30 04:52:00;;;;;;;25.80;15.93;;;-0.80;93.90;;;;;;5106251;28;20200;-86
2023/01/30 04:54:27;;;;;;;26.80;16.70;;;-0.70;93.90;;;;;;5104995;27;20223;-88
2023/01/30 04:56:54;;;;;;;24.00;15.30;;;-0.60;93.60;;;;;;5102124;27;20207;-85
2023/01/30 04:59:21;;;;;;;26.87;16.47;;;-0.80;93.30;;;;;;5099944;28;20224;-86
2023/01/30 05:01:48;;;;;;;26.20;15.73;;;-1.10;93.80;;;;;;5105618;27;20581;-86
2023/01/30 05:04:17;;;;;;;28.03;16.27;;;-1.30;94.50;;;;;;5107110;27;20242;-87
2023/01/30 05:06:44;;;;;;;25.37;15.60;;;-1.30;95.00;;;;;;5110192;27;20193;-86
2023/01/30 05:09:11;;;;;;;24.83;15.47;;;-1.30;95.60;;;;;;5107682;27;20221;-86
2023/01/30 05:11:38;;;;;;;24.73;15.20;;;-1.10;94.60;;;;;;5105470;27;20292;-88
2023/01/30 05:14:05;;;;;;;24.83;15.33;;;-1.30;94.50;;;;;;5108656;27;20219;-88
2023/01/30 05:16:33;;;;;;;25.50;16.33;;;-1.40;95.50;;;;;;5106723;27;20195;-87
2023/01/30 05:19:00;;;;;;;25.67;15.03;;;-1.30;95.40;;;;;;5105978;27;20588;-86
2023/01/30 05:21:28;;;;;;;24.23;14.83;;;-1.30;95.20;;;;;;5105758;27;20218;-91
2023/01/30 05:23:56;;;;;;;24.07;14.83;;;-1.10;95.90;;;;;;5107113;27;20223;-90
2023/01/30 05:26:24;;;;;;;22.87;14.27;;;-1.10;94.70;;;;;;5112440;27;20215;-86
2023/01/30 05:28:52;;;;;;;23.07;13.77;;;-1.20;94.60;;;;;;5111150;27;20597;-88
2023/01/30 05:31:19;;;;;;;24.97;14.73;;;-1.50;95.10;;;;;;5104839;27;20207;-86
2023/01/30 05:33:48;;;;;;;27.37;15.80;;;-1.60;95.50;;;;;;5106075;27;20867;-87
2023/01/30 05:36:16;;;;;;;31.07;16.13;;;-1.60;96.30;;;;;;5104368;27;20207;-87
2023/01/30 05:38:45;;;;;;;24.20;15.00;;;-1.60;95.80;;;;;;5113833;27;20196;-86
2023/01/30 05:41:13;;;;;;;26.20;15.20;;;-1.70;95.90;;;;;;5104741;27;20201;-87
2023/01/30 05:43:40;;;;;;;24.73;15.03;;;-1.60;96.50;;;;;;5112239;27;20549;-85
2023/01/30 05:46:07;;;;;;;24.27;15.20;;;-1.60;96.60;;;;;;5106938;27;20212;-85
2023/01/30 05:48:34;;;;;;;24.27;14.07;;;-1.40;96.20;;;;;;5104974;27;20208;-85
2023/01/30 05:51:01;;;;;;;23.33;14.33;;;-1.30;95.60;;;;;;5106728;27;20682;-85
2023/01/30 05:53:30;;;;;;;23.33;14.10;;;-1.10;95.50;;;;;;5111873;27;20220;-87
2023/01/30 05:56:01;;;;;;;23.53;14.57;;;-0.90;94.40;;;;;;5101124;28;20667;-86
2023/01/30 05:58:29;;;;;;;24.00;13.83;;;-0.90;94.30;;;;;;5102783;27;20208;-87
2023/01/30 06:01:00;;;;;;;20.37;12.73;;;-0.80;94.00;;;;;;5109403;27;20233;-87
2023/01/30 06:03:27;;;;;;;22.27;13.37;;;-0.60;93.10;;;;;;5106562;27;20242;-87
2023/01/30 06:05:54;;;;;;;26.20;13.57;;;-0.70;93.20;;;;;;5101671;27;20235;-86
2023/01/30 06:08:21;;;;;;;22.80;13.40;;;-0.90;93.40;;;;;;5109195;27;20220;-87
2023/01/30 06:10:49;;;;;;;21.83;13.63;;;-1.00;93.80;;;;;;5104282;27;20232;-86
2023/01/30 06:13:18;;;;;;;21.10;12.70;;;-0.80;93.90;;;;;;5100524;28;20698;-86
2023/01/30 06:15:45;;;;;;;22.27;13.20;;;-0.70;93.90;;;;;;5103507;27;20208;-86
2023/01/30 06:18:12;;;;;;;24.33;13.40;;;-0.80;93.60;;;;;;5103925;28;20196;-87
2023/01/30 06:20:39;;;;;;;20.53;12.73;;;-0.90;93.80;;;;;;5107929;27;20207;-85
2023/01/30 06:23:06;;;;;;;21.67;13.17;;;-0.90;93.80;;;;;;5103359;27;20208;-84
2023/01/30 06:25:33;;;;;;;21.20;13.67;;;-0.80;93.80;;;;;;5099728;27;20222;-86
2023/01/30 06:28:00;;;;;;;20.47;12.73;;;-0.70;93.90;;;;;;5112001;27;20204;-88
2023/01/30 06:30:30;;;;;;;20.97;13.40;;;-0.60;93.90;;;;;;5104953;27;20285;-88
2023/01/30 06:32:57;;;;;;;19.07;11.97;;;-0.50;93.90;;;;;;5111444;27;20252;-87
2023/01/30 06:35:23;;;;;;;20.70;12.50;;;-0.60;93.90;;;;;;5106584;27;20223;-87
2023/01/30 06:37:50;;;;;;;21.73;13.10;;;-0.70;93.90;;;;;;5108421;27;20221;-86
2023/01/30 06:40:18;;;;;;;22.40;13.10;;;-0.70;94.50;;;;;;5110498;27;20235;-87
2023/01/30 06:42:46;;;;;;;22.30;13.77;;;-0.70;95.50;;;;;;5107956;27;20220;-87
2023/01/30 06:45:14;;;;;;;22.40;12.53;;;-0.60;95.60;;;;;;5100155;27;20235;-88
2023/01/30 06:47:50;;;;;;;20.93;12.70;;;-0.70;94.20;;;;;;5102625;27;20200;-90
2023/01/30 06:50:19;;;;;;;20.33;13.07;;;-0.80;94.20;;;;;;5106421;27;20415;-87
2023/01/30 06:52:48;;;;;;;20.53;12.70;;;-0.80;95.70;;;;;;5108819;27;20204;-88
2023/01/30 06:55:17;;;;;;;20.83;12.83;;;-0.60;94.40;;;;;;5098835;27;20643;-90
2023/01/30 06:57:45;;;;;;;20.97;13.23;;;-0.60;94.50;;;;;;5105501;27;20213;-88
2023/01/30 07:00:15;;;;;;;20.90;12.97;;;-0.60;94.80;;;;;;5098675;28;20210;-87
2023/01/30 07:02:42;;;;;;;19.80;12.57;;;-0.50;93.90;;;;;;5104039;27;20200;-92
2023/01/30 07:05:13;;;;;;;19.63;11.90;;;-0.50;93.90;;;;;;5104764;28;20271;-88
2023/01/30 07:07:40;;;;;;;20.77;12.10;;;-0.40;93.90;;;;;;5101557;28;20214;-89
2023/01/30 07:10:08;;;;;;;21.90;13.10;;;-0.30;93.30;;;;;;5108439;28;20211;-88
2023/01/30 07:12:36;;;;;;;25.17;13.03;;;-0.30;92.90;;;;;;5101892;28;20735;-87
2023/01/30 07:15:03;;;;;;;19.00;12.47;;;-0.40;92.90;;;;;;5109016;28;20215;-89
2023/01/30 07:17:30;;;;;;;19.53;12.40;;;-0.30;93.00;;;;;;5104058;28;20206;-86
2023/01/30 07:19:57;;;;;;;20.87;12.40;;;-0.10;92.50;;;;;;5104251;28;20586;-87
2023/01/30 07:22:26;;;;;;;18.33;11.47;;;0.10;91.60;;;;;;5098681;28;20207;-89
2023/01/30 07:24:53;;;;;;;17.97;11.43;;;0.10;91.30;;;;;;5101288;28;20230;-89
2023/01/30 07:27:20;;;;;;;21.00;12.13;;;0.10;91.40;;;;;;5104235;28;20207;-89
2023/01/30 07:29:47;;;;;;;19.07;11.57;;;0.10;91.30;;;;;;5102570;28;20651;-87
2023/01/30 07:32:17;;;;;;;20.10;12.27;;;0.20;91.50;;;;;;5100673;28;20211;-87
2023/01/30 07:34:44;;;;;;;18.90;11.93;;;0.40;90.60;;;;;;5102005;28;20263;-89
2023/01/30 07:37:11;;;;;;;20.77;11.77;;;0.50;90.60;;;;;;5101052;28;20208;-84
2023/01/30 07:39:39;;;;;;;18.57;11.67;;;0.60;90.20;;;;;;5103328;27;20199;-86
2023/01/30 07:42:07;;;;;;;17.33;11.43;;;0.50;90.20;;;;;;5101262;28;20199;-86
2023/01/30 07:44:34;;;;;;;16.93;10.90;;;0.50;90.10;;;;;;5098250;28;20220;-89
2023/01/30 07:47:01;;;;;;;15.63;10.70;;;0.50;90.00;;;;;;5085523;28;20226;-89
2023/01/30 07:49:28;;;;;;;16.97;10.73;;;0.50;89.00;;;;;;5106045;28;20207;-86
2023/01/30 07:51:55;;;;;;;15.80;10.37;;;0.70;87.00;;;;;;5111119;27;20211;-89
2023/01/30 07:54:22;;;;;;;18.13;13.03;;;0.60;86.70;;;;;;5096332;27;20211;-89
2023/01/30 07:56:50;;;;;;;17.10;10.50;;;0.70;86.30;;;;;;5095997;27;20269;-87
2023/01/30 07:59:17;;;;;;;15.80;10.27;;;0.80;86.30;;;;;;5117324;27;20208;-88
2023/01/30 08:01:44;;;;;;;16.27;10.63;;;0.90;83.80;;;;;;5110475;27;20211;-85
2023/01/30 08:04:11;;;;;;;16.43;10.27;;;1.00;84.00;;;;;;5105085;27;20596;-87
2023/01/30 08:06:38;;;;;;;14.93;9.83;;;1.10;82.20;;;;;;5104191;27;20591;-87
2023/01/30 08:09:07;;;;;;;17.63;10.07;;;1.00;82.20;;;;;;5098083;27;20204;-87
2023/01/30 08:11:34;;;;;;;14.40;9.50;;;1.10;81.20;;;;;;5105718;27;20219;-85
2023/01/30 08:14:03;;;;;;;14.17;9.53;;;1.20;81.20;;;;;;5098366;28;20562;-87
2023/01/30 08:16:31;;;;;;;17.67;9.47;;;1.30;80.10;;;;;;5102004;27;20211;-88
2023/01/30 08:18:58;;;;;;;14.83;9.87;;;1.50;75.40;;;;;;5100210;27;20204;-87
2023/01/30 08:21:25;;;;;;;16.53;9.83;;;1.60;75.20;;;;;;5103503;27;20586;-89
2023/01/30 08:23:52;;;;;;;16.70;9.70;;;1.60;73.90;;;;;;5109283;27;20215;-86
2023/01/30 08:26:19;;;;;;;15.10;10.40;;;1.70;70.90;;;;;;5106499;27;20219;-86
2023/01/30 08:28:46;;;;;;;16.10;10.00;;;1.70;70.60;;;;;;5109803;27;20207;-88
2023/01/30 08:31:16;;;;;;;16.87;9.73;;;1.90;69.50;;;;;;5104788;27;20233;-88
2023/01/30 08:33:43;;;;;;;17.97;10.87;;;2.00;71.50;;;;;;5120728;27;20207;-89
2023/01/30 08:36:10;;;;;;;14.83;9.67;;;2.30;70.30;;;;;;5131223;27;20218;-89
2023/01/30 08:38:37;;;;;;;15.77;9.20;;;2.30;66.90;;;;;;5127411;27;20214;-88
2023/01/30 08:41:06;;;;;;;13.17;9.43;;;2.50;67.10;;;;;;5122083;27;20199;-88
2023/01/30 08:43:33;;;;;;;33.37;20.33;;;2.40;66.00;;;;;;5133966;27;20202;-91
2023/01/30 08:46:00;;;;;;;14.80;9.57;;;2.10;66.70;;;;;;5151859;27;20225;-88
2023/01/30 08:48:28;;;;;;;22.73;13.93;;;1.90;70.60;;;;;;5142911;27;20211;-87
2023/01/30 08:50:56;;;;;;;20.07;12.33;;;2.00;72.00;;;;;;5144420;27;20188;-88
2023/01/30 08:53:24;;;;;;;19.13;11.87;;;2.10;71.60;;;;;;5137970;27;20204;-90
2023/01/30 08:55:52;;;;;;;16.90;11.13;;;2.40;67.00;;;;;;5126337;27;20192;-89
2023/01/30 08:58:19;;;;;;;14.80;10.13;;;2.60;67.20;;;;;;5126426;27;20249;-89
2023/01/30 09:00:48;;;;;;;15.67;9.90;;;2.90;65.60;;;;;;5127793;27;20208;-87
2023/01/30 09:03:15;;;;;;;13.50;9.43;;;3.00;62.20;;;;;;5134180;27;20237;-90
2023/01/30 09:05:43;;;;;;;15.57;8.97;;;3.10;57.90;;;;;;5128206;27;20230;-88
2023/01/30 09:08:10;;;;;;;12.63;8.97;;;3.40;54.00;;;;;;5125974;27;20585;-90
2023/01/30 09:10:37;;;;;;;13.13;9.40;;;3.80;49.70;;;;;;5124795;27;20249;-90
2023/01/30 09:13:04;;;;;;;14.63;9.00;;;4.10;43.60;;;;;;5128458;27;20203;-90
2023/01/30 09:15:32;;;;;;;12.50;8.20;;;4.60;41.50;;;;;;5127237;27;20219;-92
2023/01/30 09:17:59;;;;;;;14.13;8.90;;;5.00;39.20;;;;;;5126917;27;20256;-92
2023/01/30 09:20:26;;;;;;;12.02;8.90;;;5.30;36.90;;;;;;5129147;27;20215;-91
2023/01/30 09:25:36;;;;;;;11.32;8.93;;;5.50;33.90;;;;;;5104519;27;20233;-88
2023/01/30 09:28:28;;;;;;;13.20;10.30;;;5.80;31.90;;;;;;5109847;27;20222;-89
2023/01/30 10:04:48;;;;;;;12.65;8.60;;;5.40;28.50;;;;;;5021111;28;20272;-89
2023/01/30 10:07:29;;;;;;;11.90;8.25;;;5.50;27.80;;;;;;5095972;28;20295;-91
2023/01/30 10:10:04;;;;;;;15.05;7.30;;;5.30;27.80;;;;;;5116786;27;20196;-87
2023/01/30 10:12:42;;;;;;;9.50;7.33;;;4.90;28.90;;;;;;5120437;27;20281;-89
2023/01/30 10:15:22;;;;;;;11.43;7.53;;;4.90;30.60;;;;;;5122293;27;20210;-89
2023/01/30 10:18:05;;;;;;;13.20;8.13;;;4.60;32.40;;;;;;5129374;27;20857;-90
2023/01/30 10:20:45;;;;;;;10.70;7.23;;;4.40;34.80;;;;;;5112078;27;20226;-87
2023/01/30 10:23:25;;;;;;;11.03;7.63;;;4.50;35.00;;;;;;5112057;27;20286;-87
2023/01/30 10:26:15;;;;;;;10.40;7.15;;;5.00;34.80;;;;;;5113952;27;20223;-89
2023/01/30 10:28:57;;;;;;;9.88;6.38;;;5.80;33.10;;;;;;5112523;27;20226;-89
2023/01/30 10:31:28;;;;;;;9.25;6.88;;;6.40;29.50;;;;;;5127606;27;20203;-88
2023/01/30 10:34:00;;;;;;;8.57;6.43;;;6.50;29.60;;;;;;5119990;27;20204;-89
2023/01/30 10:39:25;;;;;;;7.88;5.80;;;7.40;27.40;;;;;;5121278;27;20585;-90
2023/01/30 10:41:58;;;;;;;8.27;6.55;;;7.10;28.10;;;;;;5118911;27;20207;-90
2023/01/30 10:44:25;;;;;;;8.65;5.97;;;7.10;29.10;;;;;;5117471;27;20240;-89
2023/01/30 10:50:21;;;;;;;8.95;6.30;;;7.10;29.50;;;;;;5125542;27;20207;-90
2023/01/30 11:02:16;;;;;;;7.05;5.75;;;7.50;30.60;;;;;;5121038;27;20226;-91
2023/01/30 11:04:49;;;;;;;8.73;5.35;;;7.10;32.50;;;;;;5125369;27;20227;-89
2023/01/30 11:07:16;;;;;;;9.02;6.57;;;6.90;34.40;;;;;;5120195;27;20223;-86
2023/01/30 11:12:31;;;;;;;6.80;5.47;;;6.50;35.50;;;;;;5115613;27;20278;-89
2023/01/30 11:14:59;;;;;;;6.00;4.93;;;5.90;40.20;;;;;;5120425;27;20202;-88
2023/01/30 11:17:33;;;;;;;9.23;6.55;;;5.90;41.60;;;;;;5125917;27;20199;-88
2023/01/30 11:20:05;;;;;;;8.87;4.57;;;5.90;42.70;;;;;;5124461;28;20218;-87
2023/01/30 11:22:35;;;;;;;9.90;5.00;;;5.70;44.80;;;;;;5123529;27;20295;-91
2023/01/30 11:25:10;;;;;;;5.63;4.53;;;5.60;45.80;;;;;;5123680;27;20227;-90
2023/01/30 11:27:37;;;;;;;5.53;4.37;;;5.40;50.70;;;;;;5129324;27;20198;-91
2023/01/30 11:30:11;;;;;;;6.17;4.40;;;5.40;52.00;;;;;;5135943;27;20211;-90
2023/01/30 11:32:38;;;;;;;5.70;4.00;;;5.40;55.00;;;;;;5134854;27;20205;-89
2023/01/30 11:35:24;;;;;;;7.07;4.23;;;5.40;55.60;;;;;;5133134;27;20641;-91
2023/01/30 11:37:53;;;;;;;5.93;4.30;;;5.50;57.60;;;;;;5124017;27;20209;-90
2023/01/30 11:40:26;;;;;;;6.40;3.50;;;5.50;58.60;;;;;;5129245;27;20290;-89
2023/01/30 11:43:01;;;;;;;6.07;4.23;;;5.70;54.60;;;;;;5118831;27;20200;-91
2023/01/30 11:45:29;;;;;;;6.33;3.80;;;5.80;55.90;;;;;;5123775;27;20192;-92
2023/01/30 11:47:58;;;;;;;6.27;4.10;;;5.90;54.30;;;;;;5122728;27;20199;-92
2023/01/30 11:50:29;;;;;;;5.73;4.30;;;5.90;53.60;;;;;;5127035;27;20222;-91
2023/01/30 11:52:59;;;;;;;5.60;4.57;;;6.00;54.00;;;;;;5123309;27;20200;-89
2023/01/30 11:55:28;;;;;;;5.23;4.23;;;5.80;52.00;;;;;;5130631;27;20196;-91
2023/01/30 11:57:58;;;;;;;6.90;3.80;;;5.70;52.90;;;;;;5132333;27;20199;-86
2023/01/30 12:00:37;;;;;;;6.33;4.20;;;5.70;55.10;;;;;;5132786;27;20211;-86
2023/01/30 12:03:09;;;;;;;7.13;4.07;;;5.30;55.50;;;;;;5123053;27;20290;-88
2023/01/30 12:05:41;;;;;;;7.57;4.17;;;5.10;62.60;;;;;;5122553;27;20651;-90
2023/01/30 12:08:25;;;;;;;11.40;4.53;;;5.00;62.70;;;;;;5130728;27;20209;-86
2023/01/30 12:10:58;;;;;;;6.27;4.17;;;5.00;66.50;;;;;;5121188;27;20203;-89
2023/01/30 12:13:31;;;;;;;7.17;4.57;;;4.90;66.40;;;;;;5120639;27;20203;-89
2023/01/30 12:16:16;;;;;;;8.53;4.50;;;4.80;69.50;;;;;;5126293;27;20203;-89
2023/01/30 12:18:51;;;;;;;6.03;4.27;;;4.80;69.60;;;;;;5132347;27;20202;-90
2023/01/30 12:21:30;;;;;;;6.87;4.80;;;4.80;69.50;;;;;;5131502;27;20256;-91
2023/01/30 12:24:02;;;;;;;6.93;4.70;;;4.80;69.50;;;;;;5124074;27;20589;-92
2023/01/30 12:26:36;;;;;;;6.40;4.40;;;5.00;69.70;;;;;;5127929;27;20271;-91
2023/01/30 12:29:14;;;;;;;6.87;4.40;;;4.90;68.50;;;;;;5129204;27;20199;-90
2023/01/30 12:31:46;;;;;;;6.77;4.63;;;4.70;73.00;;;;;;5129009;27;20215;-89
2023/01/30 12:34:13;;;;;;;7.37;5.00;;;4.60;70.50;;;;;;5133748;27;20235;-90
2023/01/30 12:36:47;;;;;;;7.60;4.70;;;4.60;69.30;;;;;;5122908;27;20202;-87
2023/01/30 12:39:31;;;;;;;6.77;4.77;;;4.60;73.60;;;;;;5136763;27;20195;-90
2023/01/30 12:42:20;;;;;;;6.17;4.87;;;4.50;72.90;;;;;;5152523;27;20215;-89
2023/01/30 12:45:01;;;;;;;6.73;4.23;;;4.50;74.70;;;;;;5146680;27;20639;-88
2023/01/30 12:47:45;;;;;;;7.93;5.03;;;4.40;75.40;;;;;;5123614;27;20226;-90
2023/01/30 12:50:23;;;;;;;6.50;4.90;;;4.30;76.20;;;;;;5124479;27;20223;-89
2023/01/30 12:53:07;;;;;;;6.47;4.80;;;4.40;76.70;;;;;;5128879;27;20195;-88
2023/01/30 12:55:42;;;;;;;6.53;4.37;;;4.40;75.30;;;;;;5125017;27;20202;-88
2023/01/30 12:58:16;;;;;;;6.53;4.50;;;4.40;76.60;;;;;;5127527;27;20252;-88
2023/01/30 13:01:01;;;;;;;9.23;4.70;;;4.40;77.20;;;;;;5126169;27;20203;-89
2023/01/30 13:03:39;;;;;;;6.50;4.43;;;4.40;77.50;;;;;;5122396;27;20207;-88
2023/01/30 13:06:15;;;;;;;6.93;4.57;;;4.40;79.40;;;;;;5128301;27;20586;-88
2023/01/30 13:09:05;;;;;;;6.87;4.60;;;4.40;79.50;;;;;;5125759;27;20202;-90
2023/01/30 13:11:43;;;;;;;8.60;4.53;;;4.40;81.50;;;;;;5121741;27;20643;-90
2023/01/30 13:14:19;;;;;;;7.30;4.90;;;4.50;81.10;;;;;;5122068;27;20279;-87
2023/01/30 13:16:59;;;;;;;11.03;4.33;;;4.50;81.60;;;;;;5122901;27;20204;-89
2023/01/30 13:19:35;;;;;;;5.47;3.90;;;4.50;82.20;;;;;;5124626;27;20195;-89
2023/01/30 13:22:09;;;;;;;7.13;4.40;;;4.60;80.20;;;;;;5121706;27;20210;-90
2023/01/30 13:24:48;;;;;;;5.07;4.07;;;4.60;81.80;;;;;;5123219;27;20277;-90
2023/01/30 13:27:19;;;;;;;10.10;4.37;;;4.70;80.80;;;;;;5122960;27;20231;-88
2023/01/30 13:29:49;;;;;;;5.40;4.33;;;4.70;80.30;;;;;;5124524;27;20203;-88
2023/01/30 13:32:24;;;;;;;5.73;4.90;;;4.70;80.50;;;;;;5124457;27;20204;-89
2023/01/30 13:34:55;;;;;;;7.67;4.70;;;4.60;80.80;;;;;;5129824;27;20199;-91
2023/01/30 13:37:22;;;;;;;7.43;4.97;;;4.60;81.60;;;;;;5126811;27;20709;-89
2023/01/30 13:39:52;;;;;;;6.30;3.50;;;4.70;80.30;;;;;;5127654;27;20198;-89
2023/01/30 13:42:29;;;;;;;6.73;3.73;;;4.80;79.10;;;;;;5128835;27;20685;-89
2023/01/30 13:44:59;;;;;;;5.70;3.80;;;4.80;78.80;;;;;;5129965;27;20278;-89
2023/01/30 13:47:42;;;;;;;8.50;3.67;;;4.80;77.20;;;;;;5126591;27;20222;-91
2023/01/30 13:50:26;;;;;;;4.07;3.47;;;4.80;78.10;;;;;;5128268;27;20211;-90
2023/01/30 13:52:59;;;;;;;5.23;3.53;;;4.70;77.90;;;;;;5129088;27;20209;-90
2023/01/30 13:55:35;;;;;;;4.33;3.30;;;4.70;78.60;;;;;;5122978;27;20223;-89
2023/01/30 13:58:11;;;;;;;4.83;3.43;;;4.60;80.20;;;;;;5118330;27;20217;-90
2023/01/30 14:00:39;;;;;;;4.23;3.27;;;4.70;79.10;;;;;;5123762;27;20199;-90
2023/01/30 14:03:23;;;;;;;4.20;3.30;;;4.70;78.40;;;;;;5121075;27;20199;-90
2023/01/30 14:06:25;;;;;;;5.57;3.73;;;4.60;77.90;;;;;;5126538;27;20240;-90